Latest Weather Observations for Horsham AWS

IDV60801

Issued at 2:31 am EST Sunday 19 April 2015 (issued every 30 minutes, with the page automatically refreshed every 10 minutes)

About weather observations | Map of weather stations | Latest weather observations for VIC | Other Formats
Station Details ID: 079100 Name: HORSHAM AERODROME Lat: -36.67 Lon: 142.17 Height: 133.8 m
Data from the previous 72 hours. | See also: Recent months at Horsham AWS
Date/Time
EST
Temp
°C
App
Temp
°C
Dew
Point
Rel
Hum
%
Delta-T
°C
Wind Press
QNH
hPa
Press
MSL
hPa
Rain
since 9 am
mm
Dir
 
Spd
km/h
Gust
km/h
Spd
kts
Gust
kts
19/02:30am 6.6 2.6 5.1 90 0.7 SW 15 20 8 11 1022.9 1022.8 0.8
19/02:00am 6.7 2.4 5.3 91 0.6 WSW 17 22 9 12 1022.8 1022.7 0.8
19/01:30am 6.8 2.5 5.4 91 0.6 WSW 17 20 9 11 1022.5 1022.4 0.8
19/01:00am 7.0 3.2 5.8 92 0.5 WSW 15 17 8 9 1021.9 1021.8 0.8
19/12:30am 7.4 3.7 6.2 92 0.5 WSW 15 19 8 10 1021.5 1021.4 0.8
19/12:00am 8.1 3.8 7.0 93 0.5 WSW 19 20 10 11 1021.1 1021.1 0.8
 
Date/Time
EST
Temp
°C
App
Temp
°C
Dew
Point
Rel
Hum
%
Delta-T
°C
Wind Press
QNH
hPa
Press
MSL
hPa
Rain
since 9 am
mm
Dir
 
Spd
km/h
Gust
km/h
Spd
kts
Gust
kts
18/11:30pm 8.1 4.6 7.2 94 0.4 SW 15 19 8 10 1020.8 1020.8 0.8
18/11:00pm 8.7 5.0 7.8 94 0.4 WSW 17 22 9 12 1020.6 1020.6 0.8
18/10:30pm 8.9 6.0 8.0 94 0.4 WSW 13 17 7 9 1020.3 1020.2 0.8
18/10:00pm 9.6 6.4 8.5 93 0.5 WSW 15 20 8 11 1020.1 1020.0 0.8
18/09:30pm 10.1 6.7 9.0 93 0.5 WSW 17 20 9 11 1019.5 1019.4 0.8
18/09:00pm 10.2 6.4 9.1 93 0.5 WSW 19 22 10 12 1019.0 1018.9 0.8
18/08:30pm 10.7 7.4 9.6 93 0.6 WSW 17 20 9 11 1018.3 1018.2 0.8
18/08:00pm 10.8 7.0 9.9 94 0.5 SW 20 28 11 15 1018.0 1017.9 0.8
18/07:30pm 10.8 5.8 9.6 92 0.6 SW 26 32 14 17 1017.4 1017.3 0.6
18/07:00pm 10.9 6.3 9.7 92 0.6 SSW 24 32 13 17 1016.6 1016.5 0.4
18/06:30pm 11.2 4.5 9.8 91 0.7 SW 35 46 19 25 1016.2 1016.1 0.2
18/06:11pm 12.3 6.5 11.5 95 0.4 SW 33 56 18 30 1015.8 1015.7 0.0
18/06:00pm 12.5 6.9 11.6 94 0.5 SW 32 39 17 21 1015.4 1015.3 0.0
18/05:51pm 12.5 6.6 11.1 91 0.7 SW 33 46 18 25 1015.2 1015.1 0.0
18/05:30pm 13.3 7.1 11.5 89 1.0 SW 35 43 19 23 1014.4 1014.3 0.0
18/05:15pm 13.9 7.4 11.6 86 1.2 WSW 37 52 20 28 1013.9 1013.7 0.0
18/05:00pm 17.1 10.6 11.8 71 2.9 W 37 48 20 26 1013.3 1013.2 0.0
18/04:44pm 17.5 10.5 11.3 67 3.4 W 39 56 21 30 1013.1 1013.0 0.0
18/04:30pm 19.2 11.7 9.4 53 5.2 WNW 39 52 21 28 1012.6 1012.5 0.0
18/04:00pm 19.6 13.4 10.0 54 5.2 WNW 33 43 18 23 1012.6 1012.5 0.0
18/03:48pm 19.7 14.4 9.9 53 5.3 WNW 28 46 15 25 1012.5 1012.4 0.0
18/03:30pm 20.3 13.6 9.5 50 5.8 WNW 35 44 19 24 1012.4 1012.3 0.0
18/03:18pm 20.6 14.3 9.8 50 5.8 WNW 33 61 18 33 1012.2 1012.1 0.0
18/03:00pm 20.2 13.2 10.0 52 5.5 WNW 37 44 20 24 1012.4 1012.3 0.0
18/02:30pm 20.7 14.8 10.5 52 5.6 W 32 39 17 21 1012.8 1012.7 0.0
18/02:00pm 19.8 14.2 10.2 54 5.2 W 30 41 16 22 1013.1 1013.0 0.0
18/01:30pm 18.2 11.7 10.3 60 4.2 WNW 35 44 19 24 1013.7 1013.5 0.0
18/01:00pm 18.6 12.9 9.9 57 4.7 WNW 30 41 16 22 1013.9 1013.7 0.0
18/12:30pm 19.2 14.8 10.5 57 4.7 WNW 24 35 13 19 1014.2 1014.0 0.0
18/12:00pm 17.9 13.6 10.8 63 3.8 W 24 32 13 17 1014.7 1014.6 0.0
18/11:30am 16.7 13.1 10.5 67 3.3 WNW 20 30 11 16 1015.4 1015.3 0.0
18/11:00am 15.6 11.4 11.0 74 2.5 WNW 24 32 13 17 1015.6 1015.5 0.0
18/10:30am 14.8 9.3 10.6 76 2.2 W 30 39 16 21 1015.7 1015.6 0.0
18/10:00am 14.3 10.8 10.9 80 1.8 W 20 30 11 16 1016.0 1015.9 0.0
18/09:30am 13.6 10.2 10.6 82 1.6 W 19 24 10 13 1016.2 1016.1 0.0
18/09:00am 12.8 10.9 11.9 94 0.5 W 13 17 7 9 1016.1 1016.0 2.0
18/08:30am 11.6 9.9 11.3 98 0.2 NW 11 13 6 7 1015.9 1015.8 2.0
18/08:00am 9.6 7.8 9.3 98 0.1 NW 9 11 5 6 1015.5 1015.4 2.0
18/07:30am 8.4 6.2 8.0 97 0.2 WNW 9 9 5 5 1015.2 1015.1 2.0
18/07:00am 10.1 8.3 9.6 97 0.3 W 9 11 5 6 1014.7 1014.6 2.0
18/06:30am 11.2 9.4 10.7 97 0.3 W 11 13 6 7 1014.4 1014.3 2.0
18/06:00am 11.9 10.3 11.6 98 0.2 W 11 13 6 7 1014.5 1014.4 2.0
18/05:32am 11.9 10.7 11.6 98 0.2 W 9 13 5 7 1014.5 1014.4 2.0
18/05:30am 11.9 10.7 11.6 98 0.2 W 9 13 5 7 1014.5 1014.4 2.0
18/05:00am 11.9 10.7 11.6 98 0.2 W 9 13 5 7 1014.2 1014.0 2.0
18/04:30am 11.8 10.2 11.5 98 0.2 W 11 15 6 8 1014.0 1013.8 2.0
18/04:00am 11.8 10.6 11.5 98 0.2 WNW 9 11 5 6 1014.0 1013.8 2.0
18/03:30am 11.8 10.2 11.5 98 0.2 W 11 15 6 8 1013.9 1013.7 2.0
18/03:00am 11.7 10.1 11.4 98 0.2 WSW 11 15 6 8 1014.1 1013.9 2.0
18/02:30am 11.4 10.1 11.1 98 0.2 W 9 13 5 7 1014.2 1014.0 2.0
18/02:00am 11.5 11.9 11.2 98 0.2 CALM 0 0 0 0 1014.2 1014.0 2.0
18/01:30am 11.6 10.7 11.3 98 0.2 SSW 7 7 4 4 1014.5 1014.4 2.0
18/01:00am 11.6 10.7 11.3 98 0.2 SSW 7 7 4 4 1014.7 1014.6 2.0
18/12:30am 11.6 10.7 11.3 98 0.2 SSW 7 9 4 5 1014.9 1014.8 2.0
18/12:00am 11.6 10.7 11.3 98 0.2 SSW 7 7 4 4 1015.2 1015.1 2.0
 
Date/Time
EST
Temp
°C
App
Temp
°C
Dew
Point
Rel
Hum
%
Delta-T
°C
Wind Press
QNH
hPa
Press
MSL
hPa
Rain
since 9 am
mm
Dir
 
Spd
km/h
Gust
km/h
Spd
kts
Gust
kts
17/11:30pm 11.7 10.8 11.4 98 0.2 SSW 7 9 4 5 1015.6 1015.5 1.8
17/11:00pm 11.6 10.7 11.3 98 0.2 SSE 7 9 4 5 1015.8 1015.7 1.6
17/10:30pm 11.5 10.2 11.2 98 0.2 SE 9 11 5 6 1015.9 1015.8 1.6
17/10:00pm 11.4 9.7 11.1 98 0.2 SE 11 13 6 7 1015.8 1015.7 1.6
17/09:30pm 11.4 9.6 10.9 97 0.3 ESE 11 13 6 7 1016.0 1015.9 1.6
17/09:00pm 11.3 9.5 10.8 97 0.3 ESE 11 13 6 7 1016.2 1016.1 1.4
17/08:30pm 11.2 9.4 10.7 97 0.3 SE 11 15 6 8 1016.2 1016.1 1.4
17/08:00pm 11.3 9.1 10.8 97 0.3 ESE 13 19 7 10 1016.1 1016.0 1.4
17/07:30pm 11.5 9.4 11.0 97 0.3 ESE 13 17 7 9 1016.4 1016.3 1.4
17/07:04pm 11.5 9.3 10.9 96 0.3 ESE 13 15 7 8 1016.5 1016.4 1.4
17/07:00pm 11.5 9.3 10.9 96 0.3 SE 13 15 7 8 1016.5 1016.4 1.4
17/06:30pm 11.6 9.8 10.8 95 0.4 ESE 11 15 6 8 1016.4 1016.3 1.4
17/06:06pm 11.7 9.5 10.8 94 0.5 ESE 13 17 7 9 1016.6 1016.5 1.2
17/06:00pm 11.7 9.1 10.8 94 0.5 ESE 15 17 8 9 1016.5 1016.4 1.2
17/05:50pm 11.8 9.3 10.9 94 0.5 E 15 19 8 10 1016.5 1016.4 1.2
17/05:30pm 12.0 9.8 10.9 93 0.6 E 13 17 7 9 1016.4 1016.3 1.0
17/05:00pm 12.4 9.9 11.0 91 0.7 E 15 17 8 9 1016.4 1016.3 0.4
17/04:30pm 12.6 9.6 10.8 89 0.9 E 17 19 9 10 1016.5 1016.4 0.4
17/04:00pm 12.7 10.0 10.2 85 1.3 E 15 20 8 11 1016.9 1016.8 0.4
17/03:30pm 13.0 9.9 10.2 83 1.5 ESE 17 22 9 12 1017.1 1017.0 0.4
17/03:00pm 12.8 9.4 10.5 86 1.2 ESE 19 22 10 12 1017.4 1017.3 0.4
17/02:30pm 12.5 9.8 10.4 87 1.1 ESE 15 17 8 9 1018.2 1018.1 0.4
17/02:00pm 12.3 10.3 10.2 87 1.1 E 11 15 6 8 1018.7 1018.6 0.4
17/01:30pm 12.5 10.0 9.7 83 1.4 ENE 13 17 7 9 1019.5 1019.4 0.2
17/01:00pm 12.7 10.1 9.5 81 1.6 ENE 13 17 7 9 1020.2 1020.1 0.2
17/12:30pm 12.8 9.6 9.8 82 1.5 E 17 20 9 11 1020.2 1020.1 0.2
17/12:00pm 12.6 10.0 9.2 80 1.7 E 13 15 7 8 1021.4 1021.3 0.2
17/11:30am 13.1 9.8 8.2 72 2.4 E 15 19 8 10 1021.8 1021.7 0.0
17/11:00am 13.1 9.2 8.6 74 2.3 E 19 22 10 12 1021.4 1021.3 0.0
17/10:30am 13.2 9.4 7.4 68 2.8 ESE 17 22 9 12 1022.0 1021.9 0.0
17/10:00am 13.3 8.8 6.9 65 3.1 ESE 20 24 11 13 1022.1 1022.0 0.0
17/09:30am 13.0 8.7 6.8 66 3.0 ESE 19 22 10 12 1022.3 1022.2 0.0
17/09:00am 13.0 8.5 6.8 66 3.0 ESE 20 24 11 13 1022.5 1022.4 0.0
17/08:30am 12.3 8.0 7.0 70 2.6 ESE 19 22 10 12 1022.8 1022.7 0.0
17/08:00am 11.7 8.1 6.8 72 2.3 ESE 15 19 8 10 1023.1 1023.0 0.0
17/07:30am 11.2 8.0 6.7 74 2.1 SE 13 15 7 8 1023.1 1023.0 0.0
17/07:00am 10.5 7.6 6.5 76 1.9 SE 11 11 6 6 1023.1 1023.0 0.0
17/06:30am 10.5 8.3 6.3 75 2.0 ESE 7 9 4 5 1022.9 1022.8 0.0
17/06:00am 10.7 8.1 6.3 74 2.1 SE 9 11 5 6 1022.7 1022.6 0.0
17/05:30am 10.8 7.9 6.4 74 2.1 SSE 11 13 6 7 1022.7 1022.6 0.0
17/05:00am 10.9 8.3 6.3 73 2.2 SE 9 11 5 6 1022.5 1022.4 0.0
17/04:30am 11.0 7.7 6.2 72 2.3 SE 13 13 7 7 1022.4 1022.3 0.0
17/04:00am 11.2 8.2 6.1 71 2.4 ENE 11 13 6 7 1022.2 1022.1 0.0
17/03:30am 11.2 8.2 6.1 71 2.4 ESE 11 13 6 7 1022.7 1022.6 0.0
17/03:00am 11.5 8.5 6.2 70 2.5 ESE 11 13 6 7 1023.0 1022.9 0.0
17/02:30am 11.6 7.5 6.1 69 2.6 SE 17 20 9 11 1023.0 1022.9 0.0
17/02:00am 11.8 7.2 6.3 69 2.6 ESE 20 26 11 14 1023.0 1022.9 0.0
17/01:30am 11.9 6.8 6.2 68 2.7 SE 22 30 12 16 1023.5 1023.4 0.0
17/01:00am 12.1 7.7 6.6 69 2.6 SE 19 26 10 14 1023.9 1023.8 0.0
17/12:30am 12.3 7.7 6.6 68 2.7 SE 20 24 11 13 1024.3 1024.2 0.0
17/12:00am 12.4 7.8 6.7 68 2.7 SE 20 30 11 16 1024.7 1024.6 0.0
 
Date/Time
EST
Temp
°C
App
Temp
°C
Dew
Point
Rel
Hum
%
Delta-T
°C
Wind Press
QNH
hPa
Press
MSL
hPa
Rain
since 9 am
mm
Dir
 
Spd
km/h
Gust
km/h
Spd
kts
Gust
kts
16/11:30pm 12.6 8.0 6.6 67 2.9 SE 20 24 11 13 1024.9 1024.8 0.0
16/11:00pm 12.9 8.9 6.7 66 3.0 SE 17 22 9 12 1025.5 1025.4 0.0
16/10:30pm 13.4 8.8 6.5 63 3.3 SE 20 26 11 14 1025.7 1025.6 0.0
16/10:00pm 13.6 9.5 6.2 61 3.5 ESE 17 20 9 11 1025.5 1025.4 0.0
16/09:30pm 13.8 10.0 5.9 59 3.8 SE 15 17 8 9 1025.4 1025.3 0.0
16/09:00pm 13.8 10.7 5.7 58 3.8 SE 11 13 6 7 1025.3 1025.2 0.0
16/08:30pm 14.7 10.9 5.8 55 4.3 SSE 15 19 8 10 1025.0 1024.9 0.0
16/08:00pm 15.2 10.9 5.4 52 4.7 S 17 24 9 13 1024.9 1024.8 0.0
16/07:30pm 15.4 11.2 5.9 53 4.6 S 17 20 9 11 1024.9 1024.8 0.0
16/07:00pm 15.2 11.9 6.2 55 4.4 S 13 15 7 8 1024.6 1024.5 0.0
16/06:30pm 15.6 13.1 6.6 55 4.4 SSW 9 13 5 7 1024.5 1024.4 0.0
16/06:00pm 16.8 14.2 6.3 50 5.1 WSW 9 11 5 6 1024.6 1024.5 0.0
16/05:30pm 17.4 14.1 6.3 48 5.5 WSW 13 19 7 10 1024.8 1024.7 0.0
16/05:00pm 17.6 14.3 6.5 48 5.5 WSW 13 19 7 10 1024.8 1024.7 0.0
16/04:30pm 17.8 14.5 6.3 47 5.7 WSW 13 17 7 9 1024.8 1024.7 0.0
16/04:00pm 17.8 14.9 6.3 47 5.7 SW 11 17 6 9 1024.3 1024.2 0.0
16/03:30pm 18.1 15.2 6.3 46 5.9 SSW 11 15 6 8 1024.2 1024.1 0.0
16/03:00pm 18.1 14.9 6.9 48 5.6 SSW 13 22 7 12 1024.0 1023.9 0.0
16/02:30pm 18.3 14.7 6.8 47 5.8 SSW 15 22 8 12 1024.0 1023.9 0.0
16/02:00pm 17.8 13.8 6.7 48 5.5 SSW 17 20 9 11 1024.0 1023.9 0.0
16/01:30pm 17.5 14.3 7.0 50 5.3 SSW 13 20 7 11 1024.5 1024.4 0.0
16/01:00pm 17.5 14.4 7.3 51 5.1 S 13 17 7 9 1025.0 1024.9 0.0
16/12:30pm 17.4 13.8 6.9 50 5.3 SW 15 24 8 13 1025.6 1025.5 0.0
16/12:00pm 17.2 14.4 8.4 56 4.5 SSW 13 19 7 10 1025.7 1025.6 0.0
16/11:30am 17.0 13.8 8.4 57 4.4 S 15 22 8 12 1026.1 1026.0 0.0
16/11:00am 16.7 13.0 8.1 57 4.4 SSW 17 24 9 13 1026.2 1026.1 0.0
16/10:30am 16.9 12.8 8.8 59 4.2 SSW 20 24 11 13 1026.7 1026.6 0.0
16/10:00am 16.4 12.3 8.6 60 4.0 SSW 20 28 11 15 1026.8 1026.7 0.0
16/09:30am 15.8 11.4 9.0 64 3.5 SSW 22 30 12 16 1026.8 1026.7 0.0
16/09:00am 15.1 11.6 10.9 76 2.2 S 20 26 11 14 1026.3 1026.2 0.0
16/08:30am 13.5 11.5 12.6 94 0.5 SSW 15 17 8 9 1025.7 1025.6 0.0
16/08:00am 12.1 9.3 11.5 96 0.3 SSW 17 20 9 11 1025.4 1025.3 0.0
16/07:30am 10.5 7.7 9.9 96 0.3 SW 15 19 8 10 1025.2 1025.1 0.0
16/07:00am 10.7 8.6 9.9 95 0.4 WSW 11 13 6 7 1024.5 1024.4 0.0
16/06:30am 11.3 9.4 10.4 94 0.5 SW 11 13 6 7 1024.5 1024.4 0.0
16/06:00am 11.5 9.6 10.6 94 0.5 SW 11 13 6 7 1024.2 1024.1 0.0
16/05:30am 11.6 9.4 10.8 95 0.4 WSW 13 17 7 9 1024.4 1024.3 0.0
16/05:00am 11.3 9.8 10.5 95 0.4 SSW 9 13 5 7 1023.8 1023.7 0.0
16/04:30am 11.2 8.9 10.3 94 0.5 SW 13 13 7 7 1023.4 1023.3 0.0
16/04:00am 11.4 8.0 10.6 95 0.4 SW 19 22 10 12 1023.2 1023.1 0.0
16/03:30am 11.1 7.0 10.2 94 0.5 SW 22 26 12 14 1023.1 1023.0 0.0
16/03:00am 11.2 8.1 10.3 94 0.5 SW 17 20 9 11 1022.8 1022.7 0.0

Other Formats:

Comma delimited format used in spreadsheet applications
http://www.bom.gov.au/fwo/IDV60801/IDV60801.95839.axf

JavaScript Object Notation format (JSON) in row-major order
http://www.bom.gov.au/fwo/IDV60801/IDV60801.95839.json